Terminal Aerodrome Forecast
Issued by NWS

Home | Current Version | Previous Version | Text Only | Print | Product List | Glossary On
Versions: 1 2 3 4 5 6 7 8 9 10 11 12 13 14 15 16 17 18 19 20 21 22 23 24 25 26 27
000
FTUS43 KDLH 152345
TAFHYR
TAF
KHYR 152345Z 1600/1624 00000KT P6SM SCT050 BKN080
     FM160600 VRB03KT 4SM -SN OVC024
      TEMPO 1606/1610 2SM -SN BR OVC015
     FM161000 09006KT P6SM VCSH OVC015
     FM162000 13006KT P6SM OVC015=

USA.gov is the U.S. government's official web portal to all federal, state and local government web resources and services.